Time;durP1;ratioP1;P1;durP2;ratioP2;P2;SDS_P1;SDS_P2;PMS_P1;PMS_P2;Temp;Humidity;BMP_temperature;BMP_pressure;BME280_temperature;BME280_humidity;BME280_pressure;Samples;Min_cycle;Max_cycle;Signal;HPM_P1;HPM_P2
2021/04/18 00:00:20;;;;;;;33.67;19.37;;;;;;;5.20;80.90;99685.25;1731681;83;21153;-73
2021/04/18 00:02:48;;;;;;;29.85;19.32;;;;;;;5.21;81.05;99689.58;1716186;83;21317;-73
2021/04/18 00:05:17;;;;;;;30.52;18.50;;;;;;;5.17;81.27;99684.10;1731567;83;21295;-73
2021/04/18 00:07:45;;;;;;;32.45;19.17;;;;;;;5.19;81.33;99684.41;1732913;83;21601;-73
2021/04/18 00:10:12;;;;;;;28.35;17.80;;;;;;;5.35;80.97;99699.39;1729815;83;21159;-73
2021/04/18 00:12:42;;;;;;;32.53;16.85;;;;;;;5.36;81.01;99695.38;1730926;83;21102;-74
2021/04/18 00:15:11;;;;;;;21.30;13.75;;;;;;;5.31;81.30;99700.47;1727220;83;21126;-73
2021/04/18 00:17:39;;;;;;;22.70;15.10;;;;;;;5.31;81.48;99693.91;1706639;83;21291;-73
2021/04/18 00:20:11;;;;;;;23.98;14.90;;;;;;;5.45;81.22;99694.06;1732035;82;21187;-74
2021/04/18 00:22:42;;;;;;;24.57;14.63;;;;;;;5.51;81.26;99687.65;1733016;83;21118;-73
2021/04/18 00:25:11;;;;;;;20.30;13.22;;;;;;;5.50;81.50;99688.57;1707406;83;21366;-73
2021/04/18 00:27:39;;;;;;;19.45;13.93;;;;;;;5.51;81.67;99690.27;1722444;83;21293;-74
2021/04/18 00:30:11;;;;;;;21.25;13.70;;;;;;;5.67;81.37;99699.55;1703556;84;21157;-73
2021/04/18 00:32:38;;;;;;;18.92;12.80;;;;;;;5.71;81.29;99684.02;1703107;83;21147;-73
2021/04/18 00:35:08;;;;;;;22.40;13.43;;;;;;;5.68;81.54;99687.66;1705729;83;21681;-73
2021/04/18 00:37:35;;;;;;;18.32;13.03;;;;;;;5.66;81.77;99681.63;1714708;83;21134;-73
2021/04/18 00:40:07;;;;;;;22.02;14.87;;;;;;;5.81;81.44;99672.60;1729675;83;21182;-73
2021/04/18 00:42:35;;;;;;;21.35;13.93;;;;;;;5.91;81.22;99681.69;1711445;83;21146;-74
2021/04/18 00:45:05;;;;;;;23.83;14.83;;;;;;;5.88;81.28;99675.27;1716239;83;21594;-73
2021/04/18 00:47:33;;;;;;;19.40;13.68;;;;;;;5.83;81.36;99675.97;1732246;83;21162;-73
2021/04/18 00:50:00;;;;;;;21.40;14.03;;;;;;;5.69;81.21;99647.38;1720523;83;21569;-73
2021/04/18 00:52:28;;;;;;;25.90;14.43;;;;;;;5.99;80.78;99675.59;1707974;83;21166;-73
2021/04/18 00:54:55;;;;;;;23.35;14.47;;;;;;;5.97;80.79;99676.13;1711605;83;21201;-73
2021/04/18 00:57:24;;;;;;;21.82;13.90;;;;;;;5.91;80.99;99687.77;1716116;83;21169;-73
2021/04/18 00:59:51;;;;;;;20.92;14.20;;;;;;;5.89;81.05;99684.37;1732891;83;21197;-73
2021/04/18 01:02:19;;;;;;;22.07;13.93;;;;;;;6.01;80.69;99681.63;1731278;83;21717;-73
2021/04/18 01:04:47;;;;;;;22.73;14.98;;;;;;;6.02;80.67;99672.82;1724117;83;21352;-73
2021/04/18 01:07:15;;;;;;;21.00;13.78;;;;;;;5.94;80.96;99672.33;1702741;83;21189;-73
2021/04/18 01:09:44;;;;;;;19.30;12.80;;;;;;;5.94;81.16;99671.02;1703622;84;21185;-73
2021/04/18 01:12:11;;;;;;;21.77;13.05;;;;;;;6.10;80.81;99659.73;1711875;83;21562;-74
2021/04/18 01:14:40;;;;;;;18.32;13.00;;;;;;;6.15;80.71;99656.40;1715427;83;21611;-73
2021/04/18 01:17:08;;;;;;;21.17;13.22;;;;;;;6.10;80.93;99639.59;1705782;83;21589;-73
2021/04/18 01:19:36;;;;;;;18.20;12.53;;;;;;;6.08;81.08;99653.73;1705622;83;21150;-74
2021/04/18 01:22:05;;;;;;;23.70;13.50;;;;;;;6.20;80.77;99647.36;1704594;83;21811;-74
2021/04/18 01:24:43;;;;;;;23.38;13.83;;;;;;;6.27;80.63;99649.18;1729746;83;21166;-74
2021/04/18 01:27:29;;;;;;;21.25;13.25;;;;;;;6.20;80.87;99643.87;1742944;80;21149;-73
2021/04/18 01:29:56;;;;;;;22.15;13.38;;;;;;;6.17;81.01;99644.88;1783786;80;21152;-74
2021/04/18 01:32:25;;;;;;;24.32;14.43;;;;;;;6.31;80.65;99650.70;1755603;80;21651;-73
2021/04/18 01:34:52;;;;;;;23.70;14.75;;;;;;;6.30;80.66;99651.63;1739623;80;21274;-73
2021/04/18 01:37:20;;;;;;;22.82;13.32;;;;;;;6.22;80.88;99644.64;1742470;82;21204;-73
2021/04/18 01:39:48;;;;;;;20.80;13.00;;;;;;;6.20;81.03;99638.61;1731522;83;21317;-73
2021/04/18 01:42:15;;;;;;;20.05;12.40;;;;;;;6.34;80.69;99642.67;1731943;82;21185;-74
2021/04/18 01:44:44;;;;;;;21.65;13.55;;;;;;;6.34;80.71;99638.73;1743959;82;21801;-73
2021/04/18 01:47:12;;;;;;;16.77;11.30;;;;;;;6.26;80.97;99633.52;1720515;82;21119;-73
2021/04/18 01:49:40;;;;;;;19.32;12.80;;;;;;;6.27;81.03;99637.36;1716481;83;21276;-73
2021/04/18 01:52:08;;;;;;;19.67;13.20;;;;;;;6.42;80.71;99634.38;1676091;85;21641;-73
2021/04/18 01:54:36;;;;;;;20.25;12.33;;;;;;;6.42;80.68;99634.82;1742914;82;21571;-74
2021/04/18 01:57:05;;;;;;;22.17;13.13;;;;;;;6.34;80.82;99636.11;1763988;80;21117;-74
2021/04/18 01:59:36;;;;;;;18.12;12.00;;;;;;;6.24;81.08;99630.98;1759416;80;21126;-73
2021/04/18 02:02:19;;;;;;;20.45;12.80;;;;;;;6.38;80.80;99631.06;1775530;79;22820;-74
2021/04/18 02:04:49;;;;;;;17.80;11.95;;;;;;;6.39;80.61;99627.52;1729351;82;21301;-73
2021/04/18 02:07:17;;;;;;;17.32;11.40;;;;;;;6.33;80.76;99631.78;1723214;82;21587;-74
2021/04/18 02:09:45;;;;;;;19.98;12.95;;;;;;;6.26;80.96;99627.78;1744373;82;21722;-74
2021/04/18 02:12:14;;;;;;;19.95;12.70;;;;;;;6.34;80.80;99622.98;1726557;82;21175;-74
2021/04/18 02:14:44;;;;;;;19.73;12.85;;;;;;;6.44;80.54;99615.89;1748896;82;21158;-73
2021/04/18 02:17:18;;;;;;;19.30;11.88;;;;;;;6.40;80.64;99622.61;1746766;82;21115;-73
2021/04/18 02:19:46;;;;;;;19.15;12.13;;;;;;;6.33;80.83;99621.27;1730183;82;21284;-73
2021/04/18 02:22:14;;;;;;;17.30;11.75;;;;;;;6.39;80.66;99611.75;1723206;83;21670;-74
2021/04/18 02:24:44;;;;;;;21.12;13.45;;;;;;;6.48;80.36;99617.41;1724157;82;21214;-73
2021/04/18 02:27:12;;;;;;;22.22;14.10;;;;;;;6.40;80.52;99606.85;1742302;82;21150;-74
2021/04/18 02:29:41;;;;;;;18.15;11.40;;;;;;;6.33;80.64;99608.14;1744011;82;21295;-74
2021/04/18 02:32:12;;;;;;;19.07;12.90;;;;;;;6.36;80.57;99609.75;1750824;82;21135;-72
2021/04/18 02:34:41;;;;;;;21.15;14.23;;;;;;;6.40;80.28;99604.23;1750236;82;21290;-73
2021/04/18 02:37:09;;;;;;;21.97;12.88;;;;;;;6.33;80.49;99605.52;1745447;82;21163;-74
2021/04/18 02:39:38;;;;;;;19.95;11.95;;;;;;;6.27;80.68;99598.45;1703978;82;21163;-73
2021/04/18 02:42:06;;;;;;;18.98;12.05;;;;;;;6.34;80.43;99594.09;1722961;83;21211;-73
2021/04/18 02:44:36;;;;;;;16.40;10.05;;;;;;;6.36;80.20;99592.20;1748324;82;21124;-73
2021/04/18 02:47:04;;;;;;;17.42;10.70;;;;;;;6.26;80.35;99586.24;1720076;82;21183;-73
2021/04/18 02:49:35;;;;;;;16.80;10.35;;;;;;;6.13;80.45;99588.22;1723839;82;21266;-74
2021/04/18 02:52:05;;;;;;;16.93;10.58;;;;;;;6.16;80.34;99586.72;1723442;83;21663;-74
2021/04/18 02:54:33;;;;;;;18.67;10.00;;;;;;;6.18;80.20;99590.60;1723198;82;21608;-72
2021/04/18 02:57:03;;;;;;;17.55;10.28;;;;;;;6.03;80.51;99585.23;1731777;82;21599;-73
2021/04/18 02:59:30;;;;;;;17.77;10.30;;;;;;;5.96;80.83;99582.99;1737811;81;21536;-73
2021/04/18 03:01:57;;;;;;;15.48;9.25;;;;;;;6.04;80.73;99585.62;1735253;82;21290;-73
2021/04/18 03:04:25;;;;;;;22.07;10.63;;;;;;;5.98;80.68;99585.95;1724717;82;21193;-72
2021/04/18 03:06:52;;;;;;;16.87;10.20;;;;;;;5.82;81.10;99578.48;1710820;82;21163;-73
2021/04/18 03:09:21;;;;;;;18.70;11.70;;;;;;;5.79;81.41;99573.41;1727552;82;21143;-73
2021/04/18 03:11:51;;;;;;;19.15;11.22;;;;;;;5.92;81.23;99567.91;1715387;82;21131;-74
2021/04/18 03:14:23;;;;;;;20.55;11.85;;;;;;;6.05;81.08;99570.73;1717769;82;21476;-73
2021/04/18 03:16:52;;;;;;;17.20;10.95;;;;;;;6.00;81.17;99566.20;1710957;82;21164;-73
2021/04/18 03:19:20;;;;;;;17.70;10.43;;;;;;;5.93;81.34;99573.50;1739178;82;21108;-73
2021/04/18 03:21:49;;;;;;;16.27;10.80;;;;;;;6.03;81.19;99577.84;1719245;82;21151;-73
2021/04/18 03:24:19;;;;;;;17.32;10.13;;;;;;;6.14;80.87;99572.85;1722433;82;21620;-73
2021/04/18 03:26:47;;;;;;;18.40;9.78;;;;;;;6.09;80.95;99576.64;1723496;82;21185;-73
2021/04/18 03:29:15;;;;;;;14.78;9.30;;;;;;;6.05;81.08;99571.57;1717989;82;21592;-73
2021/04/18 03:31:42;;;;;;;15.28;9.30;;;;;;;6.05;81.02;99574.20;1736817;82;21124;-73
2021/04/18 03:34:11;;;;;;;17.37;10.58;;;;;;;6.15;80.68;99562.73;1715318;82;21159;-73
2021/04/18 03:36:38;;;;;;;17.17;10.25;;;;;;;6.11;80.83;99568.23;1736896;82;21688;-73
2021/04/18 03:39:13;;;;;;;13.20;8.13;;;;;;;6.04;81.05;99577.75;1739157;82;21617;-73
2021/04/18 03:41:43;;;;;;;15.58;8.90;;;;;;;6.13;80.86;99570.31;1735929;82;21171;-73
2021/04/18 03:44:11;;;;;;;14.95;9.05;;;;;;;6.12;80.32;99576.49;1739137;82;21120;-73
2021/04/18 03:46:39;;;;;;;13.38;7.95;;;;;;;6.05;80.59;99575.51;1736707;82;21304;-73
2021/04/18 03:49:09;;;;;;;12.55;8.33;;;;;;;6.00;80.92;99568.34;1709811;82;21335;-73
2021/04/18 03:51:41;;;;;;;12.90;8.30;;;;;;;6.10;80.74;99569.16;1736559;82;21968;-73
2021/04/18 03:54:12;;;;;;;14.43;9.73;;;;;;;6.17;80.48;99567.90;1725014;81;21674;-73
2021/04/18 03:56:39;;;;;;;13.65;8.70;;;;;;;6.12;80.65;99575.18;1633056;86;21236;-73
2021/04/18 03:59:07;;;;;;;15.05;9.40;;;;;;;6.08;80.82;99576.28;1709709;84;21191;-73
2021/04/18 04:01:38;;;;;;;14.75;9.00;;;;;;;6.23;80.54;99564.94;1654018;86;21242;-73
2021/04/18 04:04:07;;;;;;;14.25;9.10;;;;;;;6.29;80.46;99575.11;1706757;83;21181;-73
2021/04/18 04:06:37;;;;;;;14.15;8.53;;;;;;;6.20;80.48;99575.59;1701380;82;21295;-74
2021/04/18 04:09:05;;;;;;;13.45;8.43;;;;;;;6.18;80.60;99580.94;1706408;83;21593;-74
2021/04/18 04:11:41;;;;;;;12.95;8.05;;;;;;;6.30;80.28;99578.56;1703734;83;22152;-74
2021/04/18 04:14:10;;;;;;;13.55;8.15;;;;;;;6.24;80.46;99573.20;1724537;82;21291;-74
2021/04/18 04:16:43;;;;;;;13.50;8.00;;;;;;;6.17;80.71;99565.27;1698997;83;21756;-74
2021/04/18 04:19:14;;;;;;;11.53;7.95;;;;;;;6.22;80.67;99568.48;1682271;84;21299;-74
2021/04/18 04:21:56;;;;;;;13.85;8.40;;;;;;;6.40;80.54;99564.82;1796587;79;23410;-74
2021/04/18 04:24:30;;;;;;;15.80;10.28;;;;;;;6.33;80.60;99570.50;1759780;81;21705;-74
2021/04/18 04:26:57;;;;;;;13.75;8.65;;;;;;;6.29;80.82;99575.11;1775654;80;21182;-74
2021/04/18 04:29:24;;;;;;;14.63;9.35;;;;;;;6.39;80.75;99567.09;1764448;80;21291;-74
2021/04/18 04:31:54;;;;;;;13.20;8.70;;;;;;;6.55;80.36;99567.55;1761334;81;21575;-74
2021/04/18 04:34:21;;;;;;;14.07;9.15;;;;;;;6.54;80.32;99573.72;1772195;80;21285;-76
2021/04/18 04:36:51;;;;;;;13.15;8.43;;;;;;;6.45;80.42;99566.37;1776460;80;21627;-74
2021/04/18 04:39:19;;;;;;;14.03;8.73;;;;;;;6.50;80.43;99563.02;1768182;80;21162;-74
2021/04/18 04:41:46;;;;;;;12.70;8.23;;;;;;;6.66;80.16;99557.27;1759210;80;21119;-75
2021/04/18 04:44:16;;;;;;;14.20;9.05;;;;;;;6.68;80.19;99564.58;1761943;80;21174;-75
2021/04/18 04:46:44;;;;;;;15.40;9.20;;;;;;;6.66;80.30;99559.90;1761346;81;21273;-75
2021/04/18 04:49:12;;;;;;;14.20;9.00;;;;;;;6.70;80.13;99567.98;1761960;80;21148;-75
2021/04/18 04:51:39;;;;;;;12.73;8.33;;;;;;;6.86;79.77;99559.20;1765975;80;21162;-75
2021/04/18 04:54:09;;;;;;;16.30;9.40;;;;;;;6.83;79.86;99564.17;1775365;80;21264;-75
2021/04/18 04:56:36;;;;;;;15.48;9.53;;;;;;;6.81;80.06;99567.34;1765839;80;21173;-75
2021/04/18 04:59:03;;;;;;;14.30;9.28;;;;;;;6.85;79.96;99558.82;1761284;81;21599;-75
2021/04/18 05:01:30;;;;;;;14.45;9.35;;;;;;;6.98;79.53;99569.47;1760420;81;21178;-75
2021/04/18 05:04:03;;;;;;;16.40;9.63;;;;;;;6.94;79.59;99555.65;1757292;81;21146;-75
2021/04/18 05:06:30;;;;;;;12.80;8.15;;;;;;;6.92;79.72;99552.73;1762217;81;21332;-74
2021/04/18 05:09:01;;;;;;;14.80;9.53;;;;;;;7.03;79.59;99547.70;1758998;81;21646;-75
2021/04/18 05:11:29;;;;;;;15.10;9.98;;;;;;;7.17;79.36;99539.00;1759174;81;21571;-75
2021/04/18 05:13:57;;;;;;;15.13;9.08;;;;;;;7.17;79.41;99542.94;1758249;81;21158;-75
2021/04/18 05:16:30;;;;;;;14.23;9.20;;;;;;;7.16;79.43;99535.53;1718675;81;21134;-75
2021/04/18 05:18:58;;;;;;;14.20;9.75;;;;;;;7.30;79.07;99543.91;1761325;81;21289;-75
2021/04/18 05:21:29;;;;;;;16.45;9.98;;;;;;;7.38;78.93;99528.98;1751836;81;21350;-75
2021/04/18 05:23:58;;;;;;;13.78;9.08;;;;;;;7.35;79.01;99527.83;1752418;82;21143;-75
2021/04/18 05:26:25;;;;;;;16.27;9.15;;;;;;;7.36;78.94;99515.89;1751440;81;21721;-75
2021/04/18 05:28:53;;;;;;;15.95;10.50;;;;;;;7.51;78.52;99521.19;1756232;82;21123;-75
2021/04/18 05:31:23;;;;;;;15.20;9.38;;;;;;;7.51;78.49;99514.60;1757284;81;21614;-76
2021/04/18 05:33:54;;;;;;;15.83;9.05;;;;;;;7.48;78.53;99514.77;1757008;82;21190;-75
2021/04/18 05:37:48;;;;;;;14.18;9.55;;;;;;;7.66;78.18;99515.42;1925086;74;22959;-75
2021/04/18 05:40:20;;;;;;;14.73;9.80;;;;;;;7.70;77.92;99511.20;1866417;75;21170;-76
2021/04/18 05:42:47;;;;;;;12.58;8.03;;;;;;;7.68;78.18;99514.39;1858808;75;21621;-76
2021/04/18 05:45:16;;;;;;;14.07;9.03;;;;;;;7.68;78.14;99518.81;1848570;77;21701;-75
2021/04/18 05:47:46;;;;;;;12.40;8.83;;;;;;;7.80;77.84;99511.48;1788561;78;21308;-75
2021/04/18 05:50:14;;;;;;;13.93;9.03;;;;;;;7.85;77.65;99516.44;1804087;78;21143;-75
2021/04/18 05:52:44;;;;;;;11.55;8.43;;;;;;;7.78;77.45;99523.88;1813413;78;21292;-74
2021/04/18 05:55:11;;;;;;;14.80;10.13;;;;;;;7.73;77.52;99525.95;1780355;78;21315;-74
2021/04/18 05:57:38;;;;;;;14.13;9.88;;;;;;;7.88;77.29;99526.31;1793822;78;21297;-74
2021/04/18 06:00:07;;;;;;;13.43;9.38;;;;;;;7.94;77.24;99524.23;1754613;81;21651;-74
2021/04/18 06:02:36;;;;;;;13.03;8.35;;;;;;;7.91;77.19;99520.00;1796658;79;21166;-74
2021/04/18 06:05:05;;;;;;;14.33;9.78;;;;;;;7.91;77.27;99525.27;1806922;77;21605;-75
2021/04/18 06:07:35;;;;;;;14.93;10.25;;;;;;;8.06;76.94;99516.88;1828458;77;21324;-75
2021/04/18 06:10:05;;;;;;;14.87;10.68;;;;;;;8.14;76.79;99520.34;1827127;77;21618;-75
2021/04/18 06:12:33;;;;;;;14.95;10.25;;;;;;;8.11;76.71;99512.16;1754923;81;21163;-75
2021/04/18 06:15:00;;;;;;;15.08;10.10;;;;;;;8.07;76.67;99519.03;1740679;80;21625;-75
2021/04/18 06:17:27;;;;;;;15.68;11.08;;;;;;;8.17;76.59;99521.45;1802878;77;21178;-79
2021/04/18 06:19:59;;;;;;;14.60;10.68;;;;;;;8.26;76.37;99515.61;1767157;80;21329;-75
2021/04/18 06:22:27;;;;;;;16.95;10.38;;;;;;;8.22;76.26;99522.48;1748485;81;21174;-75
2021/04/18 06:24:56;;;;;;;14.90;9.85;;;;;;;8.17;76.30;99512.23;1773482;79;21166;-76
2021/04/18 06:27:26;;;;;;;16.35;10.45;;;;;;;8.30;76.17;99510.52;1808991;78;21173;-75
2021/04/18 06:29:55;;;;;;;15.88;11.60;;;;;;;8.37;76.17;99511.78;1749193;81;21203;-76
2021/04/18 06:32:23;;;;;;;16.32;10.28;;;;;;;8.34;76.19;99516.44;1804427;78;21190;-76
2021/04/18 06:34:52;;;;;;;13.90;9.50;;;;;;;8.33;76.30;99507.66;1774352;80;21635;-75
2021/04/18 06:37:23;;;;;;;15.50;10.25;;;;;;;8.49;76.05;99500.97;1766080;80;21204;-76
2021/04/18 06:39:52;;;;;;;15.23;9.50;;;;;;;8.60;76.07;99501.56;1763244;80;21226;-76
2021/04/18 06:42:22;;;;;;;14.35;9.30;;;;;;;8.68;76.18;99497.09;1764345;80;21167;-76
2021/04/18 06:44:51;;;;;;;12.20;8.80;;;;;;;8.83;76.12;99497.87;1796856;79;21210;-75
2021/04/18 06:47:22;;;;;;;15.28;10.68;;;;;;;9.05;75.52;99499.06;1786778;80;21599;-76
2021/04/18 06:50:03;;;;;;;13.58;9.03;;;;;;;9.15;75.52;99504.08;1763445;79;23008;-76
2021/04/18 06:52:33;;;;;;;13.08;9.15;;;;;;;9.16;75.49;99492.58;1743670;82;21162;-75
2021/04/18 06:55:01;;;;;;;14.10;10.23;;;;;;;9.31;75.10;99499.44;1745913;82;21166;-76
2021/04/18 06:57:28;;;;;;;13.88;9.55;;;;;;;9.45;74.79;99500.27;1704056;82;21163;-76
2021/04/18 06:59:56;;;;;;;14.80;8.85;;;;;;;9.44;74.36;99502.56;1710411;83;21175;-75
2021/04/18 07:02:30;;;;;;;13.03;8.95;;;;;;;9.35;74.11;99490.35;1707325;83;21190;-76
2021/04/18 07:05:15;;;;;;;11.48;8.50;;;;;;;9.35;73.41;99485.08;1673127;83;21453;-77
2021/04/18 07:07:47;;;;;;;18.57;13.50;;;;;;;9.35;72.99;99489.03;1702227;83;21288;-76
2021/04/18 07:10:30;;;;;;;30.68;17.95;;;;;;;9.24;73.17;99494.20;1720659;83;21324;-76
2021/04/18 07:13:08;;;;;;;15.38;11.55;;;;;;;9.13;73.24;99494.09;1710512;83;21643;-76
2021/04/18 07:15:43;;;;;;;13.90;10.03;;;;;;;9.13;73.38;99494.09;1696782;83;21214;-75
2021/04/18 07:18:39;;;;;;;13.90;9.70;;;;;;;9.20;73.28;99494.55;1706768;83;21162;-76
2021/04/18 07:21:12;;;;;;;14.25;9.45;;;;;;;9.13;73.24;99492.78;1690298;83;21186;-79
2021/04/18 07:23:49;;;;;;;10.85;7.92;;;;;;;9.04;73.71;99499.55;1690319;83;21111;-76
2021/04/18 07:26:28;;;;;;;12.80;8.93;;;;;;;9.09;73.61;99497.90;1722239;83;21258;-75
2021/04/18 07:29:19;;;;;;;12.00;8.38;;;;;;;9.20;73.14;99491.91;1699098;83;21719;-77
2021/04/18 07:31:49;;;;;;;11.85;9.00;;;;;;;9.13;73.47;99488.81;1712921;83;21146;-77
2021/04/18 07:34:22;;;;;;;12.93;8.53;;;;;;;9.01;73.54;99492.69;1686972;83;21154;-75
2021/04/18 07:37:09;;;;;;;11.40;8.70;;;;;;;9.04;73.62;99492.95;1709541;82;21162;-76
2021/04/18 07:39:45;;;;;;;12.47;9.10;;;;;;;9.12;73.38;99485.34;1698077;83;21134;-76
2021/04/18 07:42:42;;;;;;;15.72;10.53;;;;;;;9.06;73.65;99484.93;1712003;83;21170;-76
2021/04/18 07:45:15;;;;;;;14.78;9.75;;;;;;;8.98;73.66;99484.97;1714406;83;21174;-75
2021/04/18 07:47:47;;;;;;;16.57;12.23;;;;;;;9.02;73.69;99479.84;1721945;83;22343;-77
2021/04/18 07:50:23;;;;;;;13.38;9.85;;;;;;;9.09;73.68;99478.11;1711342;83;21152;-75
2021/04/18 07:52:53;;;;;;;13.22;8.43;;;;;;;9.05;73.73;99472.69;1706070;83;21742;-74
2021/04/18 07:55:25;;;;;;;14.90;9.88;;;;;;;9.01;73.96;99470.27;1714264;83;21167;-77
2021/04/18 07:57:52;;;;;;;15.43;11.03;;;;;;;9.15;73.76;99472.42;1707354;83;21182;-74
2021/04/18 08:00:24;;;;;;;17.70;10.38;;;;;;;9.14;73.99;99474.69;1718900;83;21616;-76
2021/04/18 08:02:52;;;;;;;14.90;10.30;;;;;;;9.10;74.21;99478.00;1709369;83;21658;-76
2021/04/18 08:05:24;;;;;;;12.18;8.73;;;;;;;9.09;73.96;99473.70;1710421;83;21123;-76
2021/04/18 08:08:13;;;;;;;14.05;9.88;;;;;;;9.18;73.68;99469.10;1695463;83;21176;-76
2021/04/18 08:10:49;;;;;;;13.75;9.88;;;;;;;9.16;73.71;99466.20;1719719;83;21797;-76
2021/04/18 08:13:25;;;;;;;14.20;9.75;;;;;;;9.08;73.83;99473.78;1708040;83;21300;-76
2021/04/18 08:16:02;;;;;;;12.70;9.80;;;;;;;9.10;73.89;99482.45;1723213;83;21190;-76
2021/04/18 08:18:40;;;;;;;12.00;9.30;;;;;;;9.21;73.70;99478.59;1719249;83;21163;-76
2021/04/18 08:21:32;;;;;;;12.58;8.25;;;;;;;9.18;73.83;99480.11;1720953;83;21155;-76
2021/04/18 08:24:01;;;;;;;11.20;7.28;;;;;;;9.12;73.98;99489.30;1706621;83;21697;-76
2021/04/18 08:26:31;;;;;;;15.65;10.05;;;;;;;9.13;73.89;99484.41;1694530;85;21176;-75
2021/04/18 08:29:04;;;;;;;15.98;9.78;;;;;;;9.22;73.56;99485.57;1698440;83;21753;-76
2021/04/18 08:32:02;;;;;;;17.37;13.00;;;;;;;9.17;73.65;99489.00;1723316;83;21155;-76
2021/04/18 08:34:51;;;;;;;12.70;9.80;;;;;;;9.12;73.92;99488.48;1721739;83;21179;-76
2021/04/18 08:37:21;;;;;;;14.95;11.00;;;;;;;9.16;73.63;99480.71;1619914;87;21322;-84
2021/04/18 08:39:52;;;;;;;16.25;12.63;;;;;;;9.24;74.55;99473.59;1649981;87;21173;-84
2021/04/18 08:42:28;;;;;;;16.32;10.95;;;;;;;9.26;74.25;99475.17;1650041;87;21212;-86
2021/04/18 08:44:57;;;;;;;13.40;9.43;;;;;;;9.29;74.23;99467.52;1649281;87;21666;-83
2021/04/18 08:47:30;;;;;;;13.65;9.80;;;;;;;9.41;73.94;99471.08;1644960;87;21212;-82
2021/04/18 08:50:16;;;;;;;13.43;9.70;;;;;;;9.54;73.27;99469.28;1644891;87;21614;-83
2021/04/18 08:52:41;;;;;;;14.73;9.45;;;;;;;9.53;73.48;99475.97;1644312;87;21188;-84
2021/04/18 08:55:12;;;;;;;13.32;9.40;;;;;;;9.49;73.87;99470.09;1637113;86;21180;-82
2021/04/18 08:57:41;;;;;;;13.80;10.00;;;;;;;9.61;73.83;99473.65;1599136;90;21229;-80
2021/04/18 09:00:15;;;;;;;13.30;9.45;;;;;;;9.76;73.46;99470.41;1607080;88;21152;-78
2021/04/18 09:02:55;;;;;;;13.83;10.58;;;;;;;9.73;73.01;99474.11;1609038;88;21229;-78
2021/04/18 09:05:26;;;;;;;13.65;9.30;;;;;;;9.60;72.68;99470.14;1619919;88;21354;-77
2021/04/18 09:07:54;;;;;;;11.97;8.90;;;;;;;9.47;73.06;99478.58;1596165;90;21236;-78
2021/04/18 09:10:21;;;;;;;15.13;10.68;;;;;;;9.52;72.91;99467.22;1564303;90;21692;-78
2021/04/18 09:12:50;;;;;;;16.35;10.75;;;;;;;9.54;73.04;99471.06;1597163;88;21370;-77
2021/04/18 09:15:23;;;;;;;15.83;11.40;;;;;;;9.48;73.13;99465.27;1572072;90;21207;-78
2021/04/18 09:17:54;;;;;;;15.07;9.47;;;;;;;9.43;73.17;99468.70;1596990;90;21253;-76
2021/04/18 09:20:24;;;;;;;12.80;9.40;;;;;;;9.44;73.26;99466.92;1566787;91;21511;-78
2021/04/18 09:22:57;;;;;;;12.68;9.13;;;;;;;9.55;73.17;99471.44;1599356;88;21763;-77
2021/04/18 09:25:25;;;;;;;15.20;10.85;;;;;;;9.50;73.16;99470.42;1615317;88;21212;-76
2021/04/18 09:27:54;;;;;;;14.25;9.18;;;;;;;9.43;73.55;99473.16;1622777;88;21731;-77
2021/04/18 09:30:26;;;;;;;14.03;8.95;;;;;;;9.39;73.68;99473.83;1597566;90;21250;-77
2021/04/18 09:32:59;;;;;;;13.93;9.00;;;;;;;9.49;73.37;99476.20;1606327;88;21172;-78
2021/04/18 09:35:29;;;;;;;14.73;9.18;;;;;;;9.57;73.12;99479.61;1615768;88;21395;-78
2021/04/18 09:38:02;;;;;;;12.63;8.68;;;;;;;9.50;73.23;99477.89;1587901;90;21213;-77
2021/04/18 09:40:32;;;;;;;12.50;9.17;;;;;;;9.46;73.49;99475.56;1558628;92;21671;-77
2021/04/18 09:43:02;;;;;;;12.53;9.33;;;;;;;9.51;73.48;99485.31;1607584;89;21514;-78
2021/04/18 09:45:33;;;;;;;16.17;9.63;;;;;;;9.65;73.23;99479.94;1614542;89;21320;-77
2021/04/18 09:48:19;;;;;;;12.35;9.03;;;;;;;9.62;73.08;99478.81;1614314;88;21268;-77
2021/04/18 09:51:02;;;;;;;12.65;8.58;;;;;;;9.57;73.13;99477.46;1614558;88;21221;-76
2021/04/18 09:53:29;;;;;;;12.90;9.95;;;;;;;9.51;73.44;99478.72;1613202;89;21213;-77
2021/04/18 09:56:10;;;;;;;13.30;9.98;;;;;;;9.67;73.38;99480.65;1596729;89;21656;-77
2021/04/18 09:58:42;;;;;;;12.23;9.48;;;;;;;9.75;73.24;99477.95;1607044;89;21181;-77
2021/04/18 10:01:29;;;;;;;13.05;9.90;;;;;;;9.71;72.85;99485.24;1557598;92;21209;-77
2021/04/18 10:03:58;;;;;;;13.70;8.98;;;;;;;9.63;73.25;99482.28;1554770;92;21389;-77
2021/04/18 10:06:47;;;;;;;13.35;10.05;;;;;;;9.68;73.42;99483.66;1609329;89;21712;-78
2021/04/18 10:09:14;;;;;;;16.40;9.95;;;;;;;9.84;73.22;99480.76;1609256;89;21225;-77
2021/04/18 10:11:57;;;;;;;15.25;10.48;;;;;;;9.82;73.32;99483.14;1616932;87;21224;-77
2021/04/18 10:14:25;;;;;;;14.85;10.00;;;;;;;9.72;73.57;99482.98;1642978;87;21676;-77
2021/04/18 10:16:53;;;;;;;12.13;8.70;;;;;;;9.71;73.69;99489.69;1645056;87;21675;-79
2021/04/18 10:19:23;;;;;;;11.80;8.93;;;;;;;9.84;73.44;99489.17;1643191;87;21216;-78
2021/04/18 10:22:08;;;;;;;12.25;9.38;;;;;;;9.81;72.83;99492.05;1601071;87;21503;-79
2021/04/18 10:24:43;;;;;;;13.35;9.20;;;;;;;9.66;73.06;99492.65;1613688;89;21652;-76
2021/04/18 10:27:13;;;;;;;11.28;8.28;;;;;;;9.57;73.46;99495.94;1606614;89;21200;-76
2021/04/18 10:29:45;;;;;;;10.58;8.60;;;;;;;9.65;73.50;99497.55;1589506;89;21840;-76
2021/04/18 10:32:15;;;;;;;10.87;8.07;;;;;;;9.69;73.51;99510.90;1614724;89;21221;-77
2021/04/18 10:34:45;;;;;;;12.70;8.75;;;;;;;9.67;73.85;99512.82;1612540;89;21343;-76
2021/04/18 10:37:13;;;;;;;10.85;8.05;;;;;;;9.63;73.63;99510.88;1601657;87;21208;-76
2021/04/18 10:39:42;;;;;;;9.85;7.45;;;;;;;9.62;73.55;99512.30;1617621;88;21216;-76
2021/04/18 10:42:10;;;;;;;10.78;8.00;;;;;;;9.67;73.27;99512.33;1613667;88;21211;-76
2021/04/18 10:44:40;;;;;;;10.95;8.30;;;;;;;9.55;73.36;99517.14;1619310;88;21696;-78
2021/04/18 10:47:11;;;;;;;9.55;6.97;;;;;;;9.44;73.67;99515.76;1619038;88;21247;-76
2021/04/18 10:49:40;;;;;;;11.97;9.08;;;;;;;9.41;74.17;99516.81;1619115;89;21175;-78
2021/04/18 10:52:07;;;;;;;13.98;10.58;;;;;;;9.56;73.95;99522.80;1618910;89;21199;-78
2021/04/18 10:54:34;;;;;;;11.65;8.58;;;;;;;9.57;73.93;99528.95;1619177;87;21248;-75
2021/04/18 10:57:03;;;;;;;10.68;8.38;;;;;;;9.48;73.95;99521.19;1619064;87;21280;-77
2021/04/18 10:59:30;;;;;;;11.45;8.18;;;;;;;9.41;74.42;99515.95;1619421;89;21313;-77
2021/04/18 11:01:58;;;;;;;13.90;10.32;;;;;;;9.47;74.58;99519.48;1619129;88;21362;-77
2021/04/18 11:04:26;;;;;;;11.53;9.20;;;;;;;9.62;74.31;99518.41;1619522;88;21228;-77
2021/04/18 11:06:54;;;;;;;13.88;9.10;;;;;;;9.60;74.39;99519.47;1619145;89;21232;-77
2021/04/18 11:09:22;;;;;;;15.75;10.80;;;;;;;9.53;74.71;99519.06;1619274;89;21192;-77
2021/04/18 11:11:50;;;;;;;15.05;10.63;;;;;;;9.56;74.89;99517.52;1619226;88;21224;-77
2021/04/18 11:14:18;;;;;;;11.33;8.88;;;;;;;9.75;74.51;99509.64;1619147;88;21688;-78
2021/04/18 11:16:45;;;;;;;11.50;8.98;;;;;;;9.88;74.27;99517.53;1619521;89;21668;-77
2021/04/18 11:19:13;;;;;;;11.65;8.55;;;;;;;9.86;74.15;99513.69;1610266;88;21282;-77
2021/04/18 11:21:41;;;;;;;12.82;9.13;;;;;;;9.89;74.45;99521.37;1607412;89;21533;-76
2021/04/18 11:24:08;;;;;;;14.50;10.93;;;;;;;10.04;74.55;99515.48;1616369;89;21208;-77
2021/04/18 11:26:35;;;;;;;18.23;13.90;;;;;;;10.28;74.09;99516.83;1619287;89;21386;-77
2021/04/18 11:29:05;;;;;;;12.78;9.98;;;;;;;10.39;73.68;99512.59;1605893;87;21787;-79
2021/04/18 11:31:32;;;;;;;22.27;14.60;;;;;;;10.46;73.91;99519.95;1592275;90;21228;-78
2021/04/18 11:34:00;;;;;;;18.02;12.13;;;;;;;10.52;73.66;99521.29;1592658;90;21168;-78
2021/04/18 11:36:30;;;;;;;11.10;8.60;;;;;;;10.62;73.03;99520.97;1590826;89;21236;-78
2021/04/18 11:38:59;;;;;;;12.10;9.38;;;;;;;10.81;72.64;99522.25;1558232;92;21224;-78
2021/04/18 11:41:28;;;;;;;12.33;8.98;;;;;;;10.89;72.72;99522.51;1601836;89;21205;-79
2021/04/18 11:43:56;;;;;;;12.15;8.93;;;;;;;10.94;72.13;99512.91;1615601;87;21696;-78
2021/04/18 11:46:23;;;;;;;9.33;7.62;;;;;;;10.94;71.75;99512.42;1588826;89;21200;-79